Centerton, AR (72719)

10:00 PM CDT on September 17, 2014 (GMT -0500)
Bentonville (Denali Park) | Change Station
CLOSE
Current Station
Personal Weather Station
Location: Bentonville, AR
Elevation: 1266 ft
Nearby Weather Stations

Elev 1266 ft 36.37 °N, 94.23 °W | Updated 1 second ago

Clear
Clear
65.5 °F
Feels Like 65.5 °F
N
0.0
Wind Variable Wind from SE
Gusts 0.0 mph

Today
High -- | Low -- °F
--% Chance of Precip.
Yesterday
High -- | Low -- °F
Precip. -- in
7:01 AM 7:21 PM
Waning Crescent, 31% visible
Pressure 29.95 in
Visibility 10.0 miles
Clouds Clear
Dew Point 64 °F
Humidity 96%
Rainfall 1.59 in
Snow Depth Not available.
UV 0 out of 12
Pollen 10.40 out of 12
Air Quality Not available.
Flu Activity Not available.
METAR KVBT 180255Z AUTO 00000KT 10SM CLR 18/17 A2995 RMK AO1 52010

More Conditions Fewer Conditions

Pressure 29.95 in
Visibility 10.0 miles
Clouds Clear
Dew Point 64 °F
Humidity 96%
Rainfall 1.59 in
Snow Depth Not available.
UV 0 out of 12
Pollen 10.40 out of 12
Air Quality Not available.
Flu Activity Not available.
METAR KVBT 180255Z AUTO 00000KT 10SM CLR 18/17 A2995 RMK AO1 52010

More Conditions Fewer Conditions

Nowcast | as of 9:41 PM CDT on September 17, 2014

At 9:41 PM...National Weather Service Doppler radars indicated scattered showers and thunderstorms across portions of eastern Oklahoma and west-central Arkansas. Some weakening has been observed with this activity as it continues to drop south through the area. Through 11:15 PM...scattered showers and thunderstorms will be possible for locations along and south of a Jenks Oklahoma to Fort Chaffee Arkansas line. Periods of light to occasional moderate rainfall will be common...resulting in average hourly rainfall of up to one quarter inch. Locally heavy downpours are likely with thunderstorms...and may produce amounts of around one inch per hour. Isolated stronger storms will be capable of producing strong winds and hail. Dangerous cloud to ground lightning can also be expected in and near thunderstorms.

×

10-Day Weather Forecast

Almanac

Astronomy

Sep. 17, 2014 Rise Set
Actual Time 7:01 AM CDT 7:21 PM CDT
Civil Twilight 6:35 AM CDT 7:47 PM CDT
Nautical Twilight 6:05 AM CDT 8:17 PM CDT
Astronomical Twilight 5:34 AM CDT 8:48 PM CDT
Moon 1:09 AM CDT (9/17) 3:25 PM CDT (9/17)
Length of Visible Light 13h 11m
Length of Day
12h 20m
Tomorrow will be 2m 17s shorter.
Waning Crescent, 31% of the Moon is Illuminated
Today
Waning Crescent
Sep 24
New
Oct 1
First Quarter
Oct 8
Full
Oct 15
Last Quarter

Today's Extremes

State Highs State Lows

Community

WunderPhotos

Upload Photos

1,754,282 photos uploaded!

Nearby

Snow Depth

Station Depth Elevation
No new snow has been reported.

Earthquake Activity

City Distance Mag. Time & Date
No recent earthquake activity has been reported nearby.
Minimum magnitude displayed is 2.5.

Coastal Water Temperatures

Place Temperature
No Stations Reporting

Nearby Weather Stations